Time,TemperatureF,DewpointF,PressureIn,WindDirection,WindDirectionDegrees,WindSpeedMPH,WindSpeedGustMPH,Humidity,HourlyPrecipIn,Conditions,Clouds,dailyrainin,SoftwareType,DateUTC
2013-02-05 00:01:00,49.0,28.0,-100.00,West,275,5.0,7.0,44,-99.99,,,-99.99,,2013-02-05 08:01:00,
2013-02-05 00:11:00,49.0,27.0,-100.00,West,276,7.0,9.0,43,-99.99,,,-99.99,,2013-02-05 08:11:00,
2013-02-05 00:21:00,49.0,27.0,-100.00,WNW,283,7.0,9.0,43,-99.99,,,-99.99,,2013-02-05 08:21:00,
2013-02-05 00:31:00,49.0,27.0,-100.00,WNW,283,6.0,8.0,43,-99.99,,,-99.99,,2013-02-05 08:31:00,
2013-02-05 00:41:00,49.0,27.0,-100.00,WNW,286,7.0,9.0,43,-99.99,,,-99.99,,2013-02-05 08:41:00,
2013-02-05 00:52:00,49.0,27.0,-100.00,WNW,282,7.0,9.0,42,-99.99,,,-99.99,,2013-02-05 08:52:00,
2013-02-05 01:02:00,49.0,27.0,-100.00,West,280,6.0,8.0,43,-99.99,,,-99.99,,2013-02-05 09:02:00,
2013-02-05 01:11:00,49.0,28.0,-100.00,WNW,282,7.0,9.0,44,-99.99,,,-99.99,,2013-02-05 09:11:00,
2013-02-05 01:21:00,49.0,29.0,-100.00,WNW,286,7.0,9.0,46,-99.99,,,-99.99,,2013-02-05 09:21:00,
2013-02-05 01:31:00,49.0,30.0,-100.00,WNW,289,6.0,9.0,47,-99.99,,,-99.99,,2013-02-05 09:31:00,
2013-02-05 01:42:00,49.0,30.0,-100.00,WNW,285,6.0,7.0,47,-99.99,,,-99.99,,2013-02-05 09:42:00,
2013-02-05 01:51:00,49.0,30.0,-100.00,West,281,5.0,7.0,48,-99.99,,,-99.99,,2013-02-05 09:51:00,
2013-02-05 02:01:00,49.0,31.0,-100.00,West,266,5.0,7.0,49,-99.99,,,-99.99,,2013-02-05 10:01:00,
2013-02-05 02:11:00,49.0,31.0,-100.00,West,263,4.0,6.0,49,-99.99,,,-99.99,,2013-02-05 10:11:00,
2013-02-05 02:21:00,50.0,32.0,-100.00,West,275,5.0,6.0,50,-99.99,,,-99.99,,2013-02-05 10:21:00,
2013-02-05 02:31:00,49.0,31.0,-100.00,West,261,5.0,7.0,50,-99.99,,,-99.99,,2013-02-05 10:31:00,
2013-02-05 02:42:00,49.0,32.0,-100.00,West,265,6.0,8.0,51,-99.99,,,-99.99,,2013-02-05 10:42:00,
2013-02-05 02:52:00,49.0,33.0,-100.00,West,267,7.0,8.0,53,-99.99,,,-99.99,,2013-02-05 10:52:00,
2013-02-05 03:01:00,49.0,33.0,-100.00,West,268,6.0,9.0,53,-99.99,,,-99.99,,2013-02-05 11:01:00,
2013-02-05 03:11:00,49.0,33.0,-100.00,West,274,7.0,8.0,53,-99.99,,,-99.99,,2013-02-05 11:11:00,
2013-02-05 03:22:00,49.0,33.0,-100.00,West,274,5.0,6.0,53,-99.99,,,-99.99,,2013-02-05 11:22:00,
2013-02-05 03:32:00,49.0,32.0,-100.00,West,267,3.0,4.0,51,-99.99,,,-99.99,,2013-02-05 11:32:00,
2013-02-05 03:41:00,49.0,31.0,-100.00,WSW,258,3.0,5.0,50,-99.99,,,-99.99,,2013-02-05 11:41:00,
2013-02-05 03:52:00,49.0,31.0,-100.00,WSW,258,4.0,6.0,49,-99.99,,,-99.99,,2013-02-05 11:52:00,
2013-02-05 04:01:00,49.0,30.0,-100.00,West,259,4.0,6.0,47,-99.99,,,-99.99,,2013-02-05 12:01:00,
2013-02-05 04:12:00,48.0,28.0,-100.00,WSW,252,5.0,7.0,45,-99.99,,,-99.99,,2013-02-05 12:12:00,
2013-02-05 04:21:00,48.0,26.0,-100.00,WSW,258,5.0,7.0,42,-99.99,,,-99.99,,2013-02-05 12:21:00,
2013-02-05 04:31:00,49.0,25.0,-100.00,West,279,4.0,5.0,39,-99.99,,,-99.99,,2013-02-05 12:31:00,
2013-02-05 04:41:00,49.0,25.0,-100.00,West,279,4.0,5.0,39,-99.99,,,-99.99,,2013-02-05 12:41:00,
2013-02-05 04:52:00,49.0,25.0,-100.00,West,266,3.0,5.0,39,-99.99,,,-99.99,,2013-02-05 12:52:00,
2013-02-05 05:01:00,49.0,24.0,-100.00,West,260,2.0,4.0,37,-99.99,,,-99.99,,2013-02-05 13:01:00,
2013-02-05 05:11:00,50.0,24.0,-100.00,West,267,2.0,4.0,36,-99.99,,,-99.99,,2013-02-05 13:11:00,
2013-02-05 05:21:00,50.0,23.0,-100.00,WSW,255,3.0,4.0,35,-99.99,,,-99.99,,2013-02-05 13:21:00,
2013-02-05 05:31:00,50.0,24.0,-100.00,WSW,244,3.0,4.0,36,-99.99,,,-99.99,,2013-02-05 13:31:00,
2013-02-05 05:41:00,50.0,23.0,-100.00,West,260,3.0,5.0,35,-99.99,,,-99.99,,2013-02-05 13:41:00,
2013-02-05 05:51:00,50.0,23.0,-100.00,WSW,254,1.0,2.0,34,-99.99,,,-99.99,,2013-02-05 13:51:00,
2013-02-05 06:01:00,51.0,24.0,-100.00,NNW,331,3.0,5.0,34,-99.99,,,-99.99,,2013-02-05 14:01:00,
2013-02-05 06:12:00,52.0,25.0,-100.00,NNW,338,4.0,6.0,34,-99.99,,,-99.99,,2013-02-05 14:12:00,
2013-02-05 06:21:00,52.0,24.0,-100.00,NNE,12,3.0,4.0,33,-99.99,,,-99.99,,2013-02-05 14:21:00,
2013-02-05 06:31:00,52.0,22.0,-100.00,NE,49,3.0,4.0,31,-99.99,,,-99.99,,2013-02-05 14:31:00,
2013-02-05 06:41:00,52.0,21.0,-100.00,ENE,66,3.0,3.0,29,-99.99,,,-99.99,,2013-02-05 14:41:00,
2013-02-05 06:52:00,52.0,20.0,-100.00,East,99,1.0,2.0,28,-99.99,,,-99.99,,2013-02-05 14:52:00,
2013-02-05 07:01:00,51.0,21.0,-100.00,NE,53,0.0,1.0,30,-99.99,,,-99.99,,2013-02-05 15:01:00,
2013-02-05 07:11:00,52.0,22.0,-100.00,ENE,77,1.0,3.0,30,-99.99,,,-99.99,,2013-02-05 15:11:00,
2013-02-05 07:21:00,52.0,22.0,-100.00,ESE,108,0.0,1.0,30,-99.99,,,-99.99,,2013-02-05 15:21:00,
2013-02-05 07:32:00,52.0,24.0,-100.00,SSW,211,1.0,2.0,33,-99.99,,,-99.99,,2013-02-05 15:32:00,
2013-02-05 07:41:00,52.0,23.0,-100.00,SW,216,1.0,2.0,32,-99.99,,,-99.99,,2013-02-05 15:41:00,
2013-02-05 07:51:00,53.0,22.0,-100.00,SSW,205,1.0,2.0,30,-99.99,,,-99.99,,2013-02-05 15:51:00,
2013-02-05 08:01:00,54.0,22.0,-100.00,SW,224,1.0,1.0,28,-99.99,,,-99.99,,2013-02-05 16:01:00,
2013-02-05 08:11:00,54.0,22.0,-100.00,WSW,238,1.0,2.0,28,-99.99,,,-99.99,,2013-02-05 16:11:00,
2013-02-05 08:22:00,54.0,22.0,-100.00,West,260,2.0,3.0,28,-99.99,,,-99.99,,2013-02-05 16:22:00,
2013-02-05 08:32:00,53.0,22.0,-100.00,West,260,3.0,4.0,29,-99.99,,,-99.99,,2013-02-05 16:32:00,
2013-02-05 08:41:00,53.0,23.0,-100.00,West,265,4.0,6.0,31,-99.99,,,-99.99,,2013-02-05 16:41:00,
2013-02-05 08:51:00,53.0,26.0,-100.00,West,279,6.0,9.0,35,-99.99,,,-99.99,,2013-02-05 16:51:00,
2013-02-05 09:01:00,53.0,26.0,-100.00,West,279,6.0,9.0,35,-99.99,,,-99.99,,2013-02-05 17:01:00,
2013-02-05 09:11:00,51.0,28.0,-100.00,WNW,288,7.0,11.0,40,-99.99,,,-99.99,,2013-02-05 17:11:00,
2013-02-05 09:21:00,51.0,28.0,-100.00,West,276,8.0,11.0,40,-99.99,,,-99.99,,2013-02-05 17:21:00,
2013-02-05 09:32:00,51.0,28.0,-100.00,West,276,9.0,12.0,40,-99.99,,,-99.99,,2013-02-05 17:32:00,
2013-02-05 09:41:00,52.0,28.0,-100.00,West,268,8.0,11.0,39,-99.99,,,-99.99,,2013-02-05 17:41:00,
2013-02-05 09:52:00,52.0,27.0,-100.00,West,271,9.0,12.0,38,-99.99,,,-99.99,,2013-02-05 17:52:00,
2013-02-05 10:01:00,52.0,27.0,-100.00,West,272,7.0,10.0,37,-99.99,,,-99.99,,2013-02-05 18:01:00,
2013-02-05 10:11:00,53.0,28.0,-100.00,West,276,6.0,8.0,38,-99.99,,,-99.99,,2013-02-05 18:11:00,
2013-02-05 10:21:00,54.0,28.0,-100.00,West,268,6.0,8.0,36,-99.99,,,-99.99,,2013-02-05 18:21:00,
2013-02-05 10:31:00,54.0,27.0,-100.00,West,278,7.0,10.0,35,-99.99,,,-99.99,,2013-02-05 18:31:00,
2013-02-05 10:42:00,55.0,27.0,-100.00,West,260,6.0,11.0,34,-99.99,,,-99.99,,2013-02-05 18:42:00,
2013-02-05 10:51:00,55.0,26.0,-100.00,West,276,7.0,10.0,33,-99.99,,,-99.99,,2013-02-05 18:51:00,
2013-02-05 11:01:00,55.0,26.0,-100.00,West,263,10.0,15.0,32,-99.99,,,-99.99,,2013-02-05 19:01:00,
2013-02-05 11:11:00,55.0,26.0,-100.00,WSW,256,11.0,16.0,32,-99.99,,,-99.99,,2013-02-05 19:11:00,
2013-02-05 11:21:00,55.0,26.0,-100.00,WSW,251,12.0,15.0,33,-99.99,,,-99.99,,2013-02-05 19:21:00,
2013-02-05 11:31:00,55.0,26.0,-100.00,WSW,257,12.0,17.0,33,-99.99,,,-99.99,,2013-02-05 19:31:00,
2013-02-05 11:42:00,55.0,26.0,-100.00,WSW,258,11.0,16.0,33,-99.99,,,-99.99,,2013-02-05 19:42:00,
2013-02-05 11:51:00,55.0,26.0,-100.00,WSW,253,13.0,19.0,33,-99.99,,,-99.99,,2013-02-05 19:51:00,
2013-02-05 12:01:00,55.0,27.0,-100.00,WSW,252,13.0,18.0,34,-99.99,,,-99.99,,2013-02-05 20:01:00,
2013-02-05 12:11:00,55.0,28.0,-100.00,West,264,14.0,20.0,35,-99.99,,,-99.99,,2013-02-05 20:11:00,
2013-02-05 12:21:00,55.0,31.0,-100.00,WSW,252,14.0,20.0,40,-99.99,,,-99.99,,2013-02-05 20:21:00,
2013-02-05 12:31:00,54.0,30.0,-100.00,WSW,254,13.0,18.0,39,-99.99,,,-99.99,,2013-02-05 20:31:00,
2013-02-05 12:41:00,54.0,29.0,-100.00,WSW,247,13.0,19.0,38,-99.99,,,-99.99,,2013-02-05 20:41:00,
2013-02-05 12:52:00,55.0,30.0,-100.00,WNW,283,12.0,18.0,38,-99.99,,,-99.99,,2013-02-05 20:52:00,
2013-02-05 13:01:00,55.0,29.0,-100.00,West,262,11.0,18.0,37,-99.99,,,-99.99,,2013-02-05 21:01:00,
2013-02-05 13:11:00,55.0,28.0,-100.00,West,262,11.0,19.0,35,-99.99,,,-99.99,,2013-02-05 21:11:00,
2013-02-05 13:21:00,55.0,27.0,-100.00,WNW,282,11.0,17.0,34,-99.99,,,-99.99,,2013-02-05 21:21:00,
2013-02-05 13:31:00,55.0,26.0,-100.00,West,276,10.0,18.0,33,-99.99,,,-99.99,,2013-02-05 21:31:00,
2013-02-05 13:41:00,56.0,25.0,-100.00,West,267,10.0,15.0,30,-99.99,,,-99.99,,2013-02-05 21:41:00,
2013-02-05 13:51:00,56.0,24.0,-100.00,West,271,10.0,14.0,29,-99.99,,,-99.99,,2013-02-05 21:51:00,
2013-02-05 14:01:00,56.0,23.0,-100.00,West,269,10.0,15.0,28,-99.99,,,-99.99,,2013-02-05 22:01:00,
2013-02-05 14:11:00,56.0,23.0,-100.00,West,273,8.0,15.0,28,-99.99,,,-99.99,,2013-02-05 22:11:00,
2013-02-05 14:21:00,56.0,24.0,-100.00,WNW,283,9.0,13.0,29,-99.99,,,-99.99,,2013-02-05 22:21:00,
2013-02-05 14:31:00,57.0,24.0,-100.00,West,272,9.0,12.0,28,-99.99,,,-99.99,,2013-02-05 22:31:00,
2013-02-05 14:41:00,57.0,26.0,-100.00,West,275,9.0,16.0,30,-99.99,,,-99.99,,2013-02-05 22:41:00,
2013-02-05 14:51:00,56.0,31.0,-100.00,West,259,11.0,16.0,39,-99.99,,,-99.99,,2013-02-05 22:51:00,
2013-02-05 15:01:00,56.0,31.0,-100.00,West,263,11.0,17.0,39,-99.99,,,-99.99,,2013-02-05 23:01:00,
2013-02-05 15:11:00,56.0,31.0,-100.00,WSW,252,11.0,16.0,39,-99.99,,,-99.99,,2013-02-05 23:11:00,
2013-02-05 15:21:00,55.0,31.0,-100.00,WSW,254,13.0,18.0,39,-99.99,,,-99.99,,2013-02-05 23:21:00,
2013-02-05 15:32:00,55.0,33.0,-100.00,West,264,11.0,16.0,44,-99.99,,,-99.99,,2013-02-05 23:32:00,
2013-02-05 15:41:00,54.0,36.0,-100.00,WSW,255,13.0,18.0,51,-99.99,,,-99.99,,2013-02-05 23:41:00,
2013-02-05 15:52:00,53.0,36.0,-100.00,WSW,255,12.0,17.0,53,-99.99,,,-99.99,,2013-02-05 23:52:00,
2013-02-05 16:01:00,53.0,35.0,-100.00,West,274,12.0,16.0,50,-99.99,,,-99.99,,2013-02-06 00:01:00,
2013-02-05 16:11:00,52.0,31.0,-100.00,West,272,13.0,16.0,45,-99.99,,,-99.99,,2013-02-06 00:11:00,
2013-02-05 16:21:00,52.0,32.0,-100.00,West,267,13.0,17.0,46,-99.99,,,-99.99,,2013-02-06 00:21:00,
2013-02-05 16:31:00,51.0,33.0,-100.00,West,263,12.0,17.0,49,-99.99,,,-99.99,,2013-02-06 00:31:00,
2013-02-05 16:42:00,51.0,34.0,-100.00,West,267,11.0,15.0,53,-99.99,,,-99.99,,2013-02-06 00:42:00,
2013-02-05 16:52:00,51.0,36.0,-100.00,West,260,11.0,15.0,57,-99.99,,,-99.99,,2013-02-06 00:52:00,
2013-02-05 17:01:00,51.0,35.0,-100.00,West,267,12.0,17.0,55,-99.99,,,-99.99,,2013-02-06 01:01:00,
2013-02-05 17:11:00,51.0,35.0,-100.00,West,270,11.0,16.0,55,-99.99,,,-99.99,,2013-02-06 01:11:00,
2013-02-05 17:21:00,50.0,34.0,-100.00,West,266,11.0,15.0,54,-99.99,,,-99.99,,2013-02-06 01:21:00,
2013-02-05 17:31:00,50.0,34.0,-100.00,West,264,11.0,14.0,55,-99.99,,,-99.99,,2013-02-06 01:31:00,
2013-02-05 17:41:00,49.0,34.0,-100.00,WSW,258,10.0,14.0,57,-99.99,,,-99.99,,2013-02-06 01:41:00,
2013-02-05 17:52:00,49.0,35.0,-100.00,WSW,258,12.0,16.0,58,-99.99,,,-99.99,,2013-02-06 01:52:00,
2013-02-05 18:01:00,48.0,34.0,-100.00,WSW,258,12.0,16.0,57,-99.99,,,-99.99,,2013-02-06 02:01:00,
2013-02-05 18:11:00,48.0,34.0,-100.00,WSW,255,12.0,15.0,59,-99.99,,,-99.99,,2013-02-06 02:11:00,
2013-02-05 18:21:00,48.0,34.0,-100.00,WSW,258,13.0,17.0,58,-99.99,,,-99.99,,2013-02-06 02:21:00,
2013-02-05 18:31:00,47.0,33.0,-100.00,West,263,13.0,17.0,57,-99.99,,,-99.99,,2013-02-06 02:31:00,
2013-02-05 18:42:00,47.0,33.0,-100.00,WSW,257,13.0,16.0,59,-99.99,,,-99.99,,2013-02-06 02:42:00,
2013-02-05 18:52:00,46.0,33.0,-100.00,WSW,258,11.0,16.0,60,-99.99,,,-99.99,,2013-02-06 02:52:00,
2013-02-05 19:02:00,46.0,33.0,-100.00,WSW,258,11.0,16.0,60,-99.99,,,-99.99,,2013-02-06 03:02:00,
2013-02-05 19:11:00,46.0,33.0,-100.00,West,259,12.0,15.0,61,-99.99,,,-99.99,,2013-02-06 03:11:00,
2013-02-05 19:21:00,46.0,34.0,-100.00,West,259,12.0,16.0,63,-99.99,,,-99.99,,2013-02-06 03:21:00,
2013-02-05 19:32:00,46.0,35.0,-100.00,West,263,13.0,17.0,64,-99.99,,,-99.99,,2013-02-06 03:32:00,
2013-02-05 19:42:00,45.0,34.0,-100.00,West,263,12.0,15.0,64,-99.99,,,-99.99,,2013-02-06 03:42:00,
2013-02-05 19:52:00,45.0,34.0,-100.00,West,263,14.0,18.0,66,-99.99,,,-99.99,,2013-02-06 03:52:00,
2013-02-05 20:01:00,45.0,35.0,-100.00,West,263,13.0,16.0,67,-99.99,,,-99.99,,2013-02-06 04:01:00,
2013-02-05 20:11:00,44.0,33.0,-100.00,West,263,13.0,17.0,66,-99.99,,,-99.99,,2013-02-06 04:11:00,
2013-02-05 20:21:00,44.0,34.0,-100.00,West,263,13.0,18.0,68,-99.99,,,-99.99,,2013-02-06 04:21:00,
2013-02-05 20:31:00,44.0,34.0,-100.00,West,262,13.0,16.0,68,-99.99,,,-99.99,,2013-02-06 04:31:00,
2013-02-05 20:41:00,44.0,34.0,-100.00,WSW,258,12.0,16.0,68,-99.99,,,-99.99,,2013-02-06 04:41:00,
2013-02-05 20:51:00,44.0,34.0,-100.00,West,262,15.0,18.0,67,-99.99,,,-99.99,,2013-02-06 04:51:00,
2013-02-05 21:01:00,45.0,32.0,-100.00,West,263,15.0,18.0,60,-99.99,,,-99.99,,2013-02-06 05:01:00,
2013-02-05 21:12:00,45.0,30.0,-100.00,West,260,14.0,18.0,55,-99.99,,,-99.99,,2013-02-06 05:12:00,
2013-02-05 21:22:00,45.0,30.0,-100.00,WSW,257,14.0,18.0,55,-99.99,,,-99.99,,2013-02-06 05:22:00,
2013-02-05 21:31:00,45.0,29.0,-100.00,WSW,258,14.0,18.0,53,-99.99,,,-99.99,,2013-02-06 05:31:00,
2013-02-05 21:41:00,45.0,28.0,-100.00,WSW,258,13.0,15.0,51,-99.99,,,-99.99,,2013-02-06 05:41:00,
2013-02-05 21:52:00,45.0,29.0,-100.00,WSW,256,13.0,17.0,53,-99.99,,,-99.99,,2013-02-06 05:52:00,
2013-02-05 22:01:00,44.0,28.0,-100.00,WSW,257,15.0,18.0,54,-99.99,,,-99.99,,2013-02-06 06:01:00,
2013-02-05 22:11:00,44.0,29.0,-100.00,WSW,258,14.0,18.0,55,-99.99,,,-99.99,,2013-02-06 06:11:00,
2013-02-05 22:21:00,44.0,29.0,-100.00,West,260,16.0,21.0,56,-99.99,,,-99.99,,2013-02-06 06:21:00,
2013-02-05 22:31:00,44.0,28.0,-100.00,WSW,257,16.0,21.0,54,-99.99,,,-99.99,,2013-02-06 06:31:00,
2013-02-05 22:41:00,44.0,28.0,-100.00,WSW,257,16.0,21.0,54,-99.99,,,-99.99,,2013-02-06 06:41:00,
2013-02-05 22:51:00,44.0,27.0,-100.00,WSW,258,17.0,22.0,51,-99.99,,,-99.99,,2013-02-06 06:51:00,
2013-02-05 23:01:00,44.0,27.0,-100.00,WSW,256,16.0,20.0,50,-99.99,,,-99.99,,2013-02-06 07:01:00,
2013-02-05 23:11:00,44.0,27.0,-100.00,WSW,255,16.0,21.0,50,-99.99,,,-99.99,,2013-02-06 07:11:00,
2013-02-05 23:21:00,44.0,27.0,-100.00,WSW,256,18.0,22.0,50,-99.99,,,-99.99,,2013-02-06 07:21:00,
2013-02-05 23:32:00,44.0,27.0,-100.00,WSW,256,18.0,22.0,50,-99.99,,,-99.99,,2013-02-06 07:32:00,
2013-02-05 23:41:00,44.0,27.0,-100.00,WSW,255,18.0,23.0,50,-99.99,,,-99.99,,2013-02-06 07:41:00,
2013-02-05 23:51:00,44.0,27.0,-100.00,West,259,18.0,23.0,50,-99.99,,,-99.99,,2013-02-06 07:51:00,